Time;durP1;ratioP1;P1;durP2;ratioP2;P2;SDS_P1;SDS_P2;PMS_P1;PMS_P2;Temp;Humidity;BMP_temperature;BMP_pressure;BME280_temperature;BME280_humidity;BME280_pressure;Samples;Min_cycle;Max_cycle;Signal;HPM_P1;HPM_P2
2023/07/11 00:00:29;;;;;;;5.22;1.70;;;19.10;99.90;;;;;;4977346;28;20109;-78
2023/07/11 00:02:56;;;;;;;11.10;1.58;;;19.10;99.90;;;;;;4977580;28;20039;-81
2023/07/11 00:05:23;;;;;;;7.00;1.60;;;19.00;99.90;;;;;;4978196;28;20446;-78
2023/07/11 00:07:50;;;;;;;4.35;1.50;;;19.00;99.90;;;;;;4996699;28;20043;-80
2023/07/11 00:10:17;;;;;;;8.32;1.98;;;19.00;99.90;;;;;;4995951;28;20353;-78
2023/07/11 00:12:44;;;;;;;10.13;2.13;;;19.00;99.90;;;;;;4995348;28;20085;-80
2023/07/11 00:15:11;;;;;;;7.25;1.75;;;19.00;99.90;;;;;;4995880;28;20045;-78
2023/07/11 00:17:38;;;;;;;9.07;1.80;;;19.00;99.90;;;;;;4996837;28;20042;-79
2023/07/11 00:20:08;;;;;;;7.30;2.00;;;18.90;99.90;;;;;;4995813;28;20074;-80
2023/07/11 00:22:34;;;;;;;6.50;1.75;;;18.90;99.90;;;;;;4996842;28;20042;-78
2023/07/11 00:25:03;;;;;;;5.07;1.55;;;18.90;99.90;;;;;;4995245;28;20122;-78
2023/07/11 00:27:31;;;;;;;6.85;1.80;;;18.80;99.90;;;;;;4996304;28;20038;-79
2023/07/11 00:29:57;;;;;;;7.00;1.83;;;18.80;99.90;;;;;;4996240;28;20038;-81
2023/07/11 00:32:24;;;;;;;6.70;1.80;;;18.80;99.90;;;;;;4978260;28;20433;-80
2023/07/11 00:34:51;;;;;;;6.22;1.50;;;18.80;99.90;;;;;;4996061;28;20451;-78
2023/07/11 00:37:18;;;;;;;5.05;1.52;;;18.80;99.90;;;;;;4995210;28;20057;-80
2023/07/11 00:39:45;;;;;;;7.65;2.08;;;18.80;99.90;;;;;;4995568;28;20454;-81
2023/07/11 00:42:11;;;;;;;7.28;1.70;;;18.80;99.90;;;;;;4996124;28;20128;-78
2023/07/11 00:44:38;;;;;;;8.07;1.80;;;18.80;99.90;;;;;;4994928;28;20038;-78
2023/07/11 00:47:06;;;;;;;5.57;1.60;;;18.80;99.90;;;;;;4978852;28;20046;-79
2023/07/11 00:49:33;;;;;;;8.52;1.67;;;18.80;99.90;;;;;;4995292;28;20042;-78
2023/07/11 00:52:00;;;;;;;6.38;1.85;;;18.90;99.90;;;;;;4995068;28;20046;-79
2023/07/11 00:54:27;;;;;;;7.72;1.58;;;18.90;99.90;;;;;;4995826;28;20042;-78
2023/07/11 00:56:55;;;;;;;7.32;1.73;;;18.90;99.90;;;;;;4979006;28;20042;-77
2023/07/11 00:59:24;;;;;;;8.63;1.60;;;18.90;99.90;;;;;;4978047;28;20207;-80
2023/07/11 01:01:51;;;;;;;5.40;1.77;;;18.90;99.90;;;;;;4978472;28;20105;-80
2023/07/11 01:04:19;;;;;;;7.65;1.83;;;19.00;99.90;;;;;;4978689;28;20070;-80
2023/07/11 01:06:48;;;;;;;7.68;1.73;;;19.00;99.90;;;;;;4990254;28;20382;-81
2023/07/11 01:09:15;;;;;;;8.60;1.70;;;19.00;99.90;;;;;;4976634;28;20072;-81
2023/07/11 01:11:42;;;;;;;9.75;1.90;;;19.00;99.90;;;;;;4992453;28;20046;-79
2023/07/11 01:14:08;;;;;;;10.65;2.15;;;19.00;99.90;;;;;;4995370;28;20078;-80
2023/07/11 01:16:35;;;;;;;12.00;1.80;;;19.10;99.90;;;;;;4994510;28;20050;-78
2023/07/11 01:19:02;;;;;;;9.95;2.00;;;19.10;99.90;;;;;;4994720;28;20126;-80
2023/07/11 01:21:29;;;;;;;8.65;1.90;;;19.10;99.90;;;;;;4994956;28;20542;-80
2023/07/11 01:23:56;;;;;;;6.57;1.95;;;19.10;99.90;;;;;;4994400;28;20100;-80
2023/07/11 01:26:24;;;;;;;6.13;1.70;;;19.10;99.90;;;;;;4993424;28;20054;-80
2023/07/11 01:28:51;;;;;;;6.65;1.88;;;19.10;99.90;;;;;;4995252;28;20039;-79
2023/07/11 01:31:17;;;;;;;8.77;1.70;;;19.10;99.90;;;;;;4994715;28;20404;-81
2023/07/11 01:33:44;;;;;;;9.18;1.98;;;19.10;99.90;;;;;;4994730;28;20109;-80
2023/07/11 01:36:11;;;;;;;13.23;1.80;;;19.20;99.90;;;;;;4994060;28;20053;-79
2023/07/11 01:38:38;;;;;;;5.55;1.75;;;19.20;99.90;;;;;;4994478;28;20043;-80
2023/07/11 01:41:07;;;;;;;7.38;1.85;;;19.20;99.90;;;;;;4994939;28;20054;-80
2023/07/11 01:43:33;;;;;;;6.75;1.60;;;19.20;99.90;;;;;;4995331;28;20364;-79
2023/07/11 01:46:00;;;;;;;5.25;1.50;;;19.20;99.90;;;;;;4994521;28;20046;-80
2023/07/11 01:48:28;;;;;;;5.97;2.25;;;19.20;99.90;;;;;;4995505;28;20457;-81
2023/07/11 01:50:55;;;;;;;11.82;2.03;;;19.20;99.90;;;;;;4994929;28;20409;-79
2023/07/11 01:53:21;;;;;;;7.88;1.92;;;19.20;99.90;;;;;;4993563;28;20042;-80
2023/07/11 01:55:48;;;;;;;7.95;1.92;;;19.30;99.90;;;;;;4995025;28;20350;-78
2023/07/11 01:58:15;;;;;;;6.43;1.70;;;19.30;99.90;;;;;;4981274;28;20063;-78
2023/07/11 02:00:42;;;;;;;7.20;1.70;;;19.40;99.90;;;;;;4997963;28;20112;-79
2023/07/11 02:03:09;;;;;;;5.63;1.90;;;19.40;99.90;;;;;;4999388;28;20042;-78
2023/07/11 02:05:37;;;;;;;7.43;2.10;;;19.40;99.90;;;;;;5001797;28;20406;-79
2023/07/11 02:08:04;;;;;;;8.70;1.95;;;19.40;99.90;;;;;;5018932;28;20042;-81
2023/07/11 02:10:30;;;;;;;10.77;2.03;;;19.50;99.90;;;;;;5018529;28;20061;-79
2023/07/11 02:12:57;;;;;;;6.72;1.83;;;19.50;99.90;;;;;;5017338;28;20060;-79
2023/07/11 02:15:25;;;;;;;10.30;2.15;;;19.60;99.90;;;;;;5001280;28;20038;-77
2023/07/11 02:17:52;;;;;;;8.15;1.70;;;19.60;99.90;;;;;;5000171;28;20457;-79
2023/07/11 02:20:18;;;;;;;14.13;1.80;;;19.60;99.90;;;;;;5001492;28;20068;-81
2023/07/11 02:22:45;;;;;;;8.85;1.98;;;19.60;99.90;;;;;;5018242;28;20069;-80
2023/07/11 02:25:12;;;;;;;9.32;1.90;;;19.70;99.90;;;;;;4999945;28;20376;-78
2023/07/11 02:27:39;;;;;;;9.35;2.05;;;19.70;99.90;;;;;;5018388;28;20070;-76
2023/07/11 02:30:05;;;;;;;8.43;2.13;;;19.70;99.90;;;;;;5018000;28;20408;-79
2023/07/11 02:32:32;;;;;;;11.50;1.80;;;19.70;99.90;;;;;;5017353;28;20072;-80
2023/07/11 02:34:59;;;;;;;9.75;1.70;;;19.80;99.90;;;;;;5017893;28;20041;-79
2023/07/11 02:37:26;;;;;;;9.27;2.40;;;19.80;99.90;;;;;;5001208;28;20041;-78
2023/07/11 02:39:52;;;;;;;14.90;2.17;;;19.80;99.90;;;;;;5017478;28;20041;-80
2023/07/11 02:42:19;;;;;;;7.18;1.73;;;19.80;99.90;;;;;;5001208;28;20073;-78
2023/07/11 02:44:46;;;;;;;12.93;1.85;;;19.80;99.90;;;;;;5016667;28;20050;-79
2023/07/11 02:47:12;;;;;;;9.95;2.03;;;19.80;99.90;;;;;;5000930;28;20396;-79
2023/07/11 02:49:41;;;;;;;7.90;1.90;;;19.80;99.90;;;;;;5000245;28;20374;-78
2023/07/11 02:52:07;;;;;;;8.23;1.73;;;19.80;99.90;;;;;;5016958;28;20449;-78
2023/07/11 02:54:36;;;;;;;8.57;2.22;;;19.80;99.90;;;;;;5000350;28;20046;-79
2023/07/11 02:57:03;;;;;;;10.95;2.00;;;19.80;99.90;;;;;;5017592;28;20046;-80
2023/07/11 02:59:30;;;;;;;11.32;1.98;;;19.70;99.90;;;;;;5016729;28;20053;-78
2023/07/11 03:01:57;;;;;;;9.15;1.60;;;19.70;99.90;;;;;;5017515;28;20133;-79
2023/07/11 03:04:23;;;;;;;7.43;1.65;;;19.70;99.90;;;;;;5017397;28;20046;-79
2023/07/11 03:06:51;;;;;;;11.77;1.95;;;19.70;99.90;;;;;;4985100;28;20477;-79
2023/07/11 03:09:18;;;;;;;7.88;1.77;;;19.70;99.90;;;;;;4997662;28;20074;-78
2023/07/11 03:11:45;;;;;;;5.93;1.92;;;19.70;99.90;;;;;;4996812;28;20050;-80
2023/07/11 03:14:12;;;;;;;9.15;2.00;;;19.70;99.90;;;;;;4997640;28;20465;-78
2023/07/11 03:16:42;;;;;;;13.73;2.25;;;19.70;99.90;;;;;;4980162;28;20042;-82
2023/07/11 03:19:09;;;;;;;12.40;1.83;;;19.70;99.90;;;;;;4996672;28;20122;-79
2023/07/11 03:21:35;;;;;;;6.82;1.67;;;19.70;99.90;;;;;;4980880;28;20073;-79
2023/07/11 03:24:02;;;;;;;8.13;1.70;;;19.70;99.90;;;;;;4997699;28;20133;-79
2023/07/11 03:26:31;;;;;;;7.13;1.83;;;19.70;99.90;;;;;;4996391;28;20045;-81
2023/07/11 03:28:58;;;;;;;8.60;1.80;;;19.70;99.90;;;;;;4997268;28;20042;-80
2023/07/11 03:31:25;;;;;;;6.47;1.80;;;19.70;99.90;;;;;;4997061;28;20145;-80
2023/07/11 03:33:52;;;;;;;7.35;1.98;;;19.70;99.90;;;;;;4997277;28;20046;-79
2023/07/11 03:36:20;;;;;;;7.65;1.60;;;19.70;99.90;;;;;;4997323;28;20528;-79
2023/07/11 03:38:46;;;;;;;11.60;1.95;;;19.70;99.90;;;;;;4979369;28;20035;-79
2023/07/11 03:41:13;;;;;;;17.27;1.80;;;19.60;99.90;;;;;;4997532;28;20047;-81
2023/07/11 03:43:40;;;;;;;8.57;1.90;;;19.60;99.90;;;;;;4997863;28;20046;-78
2023/07/11 03:46:08;;;;;;;6.65;1.55;;;19.60;99.90;;;;;;4996040;28;20130;-78
2023/07/11 03:48:35;;;;;;;8.27;1.90;;;19.60;99.90;;;;;;4980428;28;20068;-79
2023/07/11 03:51:01;;;;;;;8.70;1.83;;;19.50;99.90;;;;;;4996852;28;20077;-79
2023/07/11 03:53:28;;;;;;;8.38;1.90;;;19.50;99.90;;;;;;4996467;28;20138;-80
2023/07/11 03:55:56;;;;;;;7.57;2.00;;;19.50;99.90;;;;;;4996623;28;20402;-78
2023/07/11 03:58:23;;;;;;;7.68;2.13;;;19.50;99.90;;;;;;4996192;28;20048;-79
2023/07/11 04:00:49;;;;;;;9.80;1.67;;;19.60;99.90;;;;;;4996841;28;20077;-80
2023/07/11 04:03:16;;;;;;;11.77;1.75;;;19.50;99.90;;;;;;4996827;28;20062;-80
2023/07/11 04:05:43;;;;;;;12.88;1.85;;;19.50;99.90;;;;;;4995564;28;20085;-80
2023/07/11 04:08:10;;;;;;;10.93;2.08;;;19.50;99.90;;;;;;4979529;28;20477;-80
2023/07/11 04:10:36;;;;;;;8.30;1.92;;;19.50;99.90;;;;;;4996057;28;20077;-80
2023/07/11 04:13:03;;;;;;;12.57;2.28;;;19.50;99.90;;;;;;4995649;28;20174;-79
2023/07/11 04:15:30;;;;;;;6.70;1.63;;;19.50;99.90;;;;;;4996300;28;20042;-81
2023/07/11 04:17:57;;;;;;;7.55;2.05;;;19.40;99.90;;;;;;4994924;28;20137;-78
2023/07/11 04:20:24;;;;;;;7.28;1.83;;;19.30;99.90;;;;;;4995808;28;20042;-80
2023/07/11 04:22:50;;;;;;;7.57;1.80;;;19.30;99.90;;;;;;4979789;28;20448;-79
2023/07/11 04:25:18;;;;;;;9.00;1.60;;;19.20;99.90;;;;;;4995203;28;20069;-79
2023/07/11 04:27:45;;;;;;;9.68;2.10;;;19.20;99.90;;;;;;4996019;28;20129;-79
2023/07/11 04:30:11;;;;;;;5.38;1.58;;;19.10;99.90;;;;;;4996028;28;20520;-80
2023/07/11 04:32:38;;;;;;;5.72;1.90;;;19.00;99.90;;;;;;4995710;28;20065;-81
2023/07/11 04:35:07;;;;;;;12.55;1.98;;;19.00;99.90;;;;;;4996225;28;20064;-79
2023/07/11 04:37:33;;;;;;;7.05;1.85;;;19.00;99.90;;;;;;4996593;28;20038;-80
2023/07/11 04:40:00;;;;;;;8.80;1.83;;;19.00;99.90;;;;;;4978096;28;20065;-78
2023/07/11 04:42:29;;;;;;;9.13;1.80;;;18.90;99.90;;;;;;4995968;28;20046;-80
2023/07/11 04:44:57;;;;;;;7.65;1.80;;;18.90;99.90;;;;;;4994865;28;20462;-79
2023/07/11 04:47:23;;;;;;;5.70;1.70;;;18.90;99.90;;;;;;4996239;28;20050;-80
2023/07/11 04:49:50;;;;;;;8.15;1.52;;;18.90;99.90;;;;;;4996237;28;20042;-77
2023/07/11 04:52:17;;;;;;;6.32;1.67;;;18.90;99.90;;;;;;4995203;28;20133;-79
2023/07/11 04:54:44;;;;;;;6.93;1.73;;;18.90;99.90;;;;;;4995473;28;20489;-79
2023/07/11 04:57:13;;;;;;;9.27;2.65;;;18.80;99.90;;;;;;4995868;28;20050;-78
2023/07/11 04:59:39;;;;;;;9.20;1.88;;;18.80;99.90;;;;;;4994819;28;20457;-78
2023/07/11 05:02:06;;;;;;;6.82;1.52;;;18.80;99.90;;;;;;4995702;28;20073;-80
2023/07/11 05:04:33;;;;;;;5.38;1.40;;;18.90;99.90;;;;;;4977407;28;20469;-79
2023/07/11 05:07:00;;;;;;;4.90;1.33;;;18.90;99.90;;;;;;4995381;28;20429;-79
2023/07/11 05:09:27;;;;;;;7.35;1.40;;;18.90;99.90;;;;;;4995526;28;20104;-80
2023/07/11 05:11:54;;;;;;;4.60;1.40;;;18.90;99.90;;;;;;4994985;28;20043;-80
2023/07/11 05:14:21;;;;;;;5.00;1.50;;;18.90;99.90;;;;;;4995265;28;20062;-78
2023/07/11 05:16:49;;;;;;;4.50;1.30;;;18.80;99.90;;;;;;4995744;28;20105;-79
2023/07/11 05:19:16;;;;;;;5.47;1.45;;;18.80;99.90;;;;;;4994702;28;20125;-79
2023/07/11 05:21:43;;;;;;;4.50;1.40;;;18.80;99.90;;;;;;4995963;28;20138;-80
2023/07/11 05:24:09;;;;;;;4.25;1.27;;;18.70;99.90;;;;;;4995438;28;20049;-79
2023/07/11 05:26:38;;;;;;;5.05;1.58;;;18.60;99.90;;;;;;4994772;28;20394;-79
2023/07/11 05:29:05;;;;;;;3.90;1.38;;;18.50;99.90;;;;;;4995439;28;20354;-80
2023/07/11 05:31:31;;;;;;;5.80;1.20;;;18.50;99.90;;;;;;4994658;28;20038;-79
2023/07/11 05:33:58;;;;;;;3.63;1.40;;;18.50;99.90;;;;;;4995568;28;20044;-77
2023/07/11 05:38:53;;;;;;;7.63;1.52;;;18.40;99.90;;;;;;4994614;28;20041;-77
2023/07/11 05:41:20;;;;;;;5.28;1.20;;;18.30;99.90;;;;;;4995357;28;20096;-79
2023/07/11 05:43:46;;;;;;;4.05;1.45;;;18.20;99.90;;;;;;4995824;28;20076;-80
2023/07/11 05:46:14;;;;;;;4.85;1.55;;;18.20;99.90;;;;;;4994263;28;20046;-79
2023/07/11 05:48:41;;;;;;;2.47;1.10;;;18.20;99.90;;;;;;4995294;28;20038;-80
2023/07/11 05:51:08;;;;;;;4.93;1.60;;;18.20;99.90;;;;;;4994273;28;20065;-78
2023/07/11 05:53:34;;;;;;;6.57;1.30;;;18.30;99.90;;;;;;4995262;28;20035;-78
2023/07/11 05:56:01;;;;;;;5.07;1.15;;;18.30;99.90;;;;;;4994923;28;20038;-80
2023/07/11 05:58:28;;;;;;;4.28;1.50;;;18.40;99.90;;;;;;4994472;28;20463;-79
2023/07/11 06:00:54;;;;;;;2.85;1.00;;;18.60;99.90;;;;;;4995502;28;20145;-81
2023/07/11 06:03:21;;;;;;;2.50;0.98;;;18.90;99.90;;;;;;4995422;28;20104;-78
2023/07/11 06:05:49;;;;;;;4.25;1.00;;;19.10;99.90;;;;;;4976957;28;20416;-77
2023/07/11 06:08:16;;;;;;;3.17;1.10;;;19.20;99.90;;;;;;4995662;28;20042;-79
2023/07/11 06:10:42;;;;;;;3.20;1.10;;;19.10;99.90;;;;;;4995258;28;20118;-80
2023/07/11 06:13:09;;;;;;;4.68;1.23;;;19.00;99.90;;;;;;4994011;28;20476;-80
2023/07/11 06:15:36;;;;;;;3.70;1.20;;;19.00;99.90;;;;;;4994787;28;20043;-79
2023/07/11 06:18:02;;;;;;;5.15;1.25;;;18.90;99.90;;;;;;4994416;28;20096;-79
2023/07/11 06:20:29;;;;;;;2.78;1.00;;;18.90;99.90;;;;;;4994987;28;20049;-79
2023/07/11 06:22:56;;;;;;;2.40;0.90;;;18.80;99.90;;;;;;4994095;28;20074;-78
2023/07/11 06:28:08;;;;;;;7.15;1.42;;;18.80;99.90;;;;;;4990786;28;20054;-82
2023/07/11 06:30:35;;;;;;;4.70;1.30;;;18.80;99.90;;;;;;4994384;28;20409;-81
2023/07/11 06:33:02;;;;;;;3.25;0.90;;;18.70;99.90;;;;;;4993034;28;20052;-82
2023/07/11 06:35:29;;;;;;;5.95;1.10;;;18.70;99.90;;;;;;4982945;28;20046;-82
2023/07/11 06:37:55;;;;;;;3.05;1.10;;;18.80;99.90;;;;;;4957579;28;20470;-83
2023/07/11 06:40:22;;;;;;;4.90;1.55;;;18.90;99.90;;;;;;4975029;28;20043;-80
2023/07/11 06:42:49;;;;;;;3.88;1.33;;;19.00;99.90;;;;;;4959964;28;20122;-83
2023/07/11 06:45:17;;;;;;;5.95;1.30;;;19.20;99.90;;;;;;4977467;28;20074;-79
2023/07/11 06:47:43;;;;;;;5.47;1.58;;;19.30;99.90;;;;;;4961417;28;20470;-80
2023/07/11 06:50:10;;;;;;;6.45;1.83;;;19.50;99.90;;;;;;4980760;28;20157;-77
2023/07/11 06:52:37;;;;;;;5.10;1.40;;;19.60;99.90;;;;;;4997361;28;20397;-79
2023/07/11 06:55:04;;;;;;;6.97;1.45;;;19.70;99.90;;;;;;4997384;28;20093;-78
2023/07/11 06:57:31;;;;;;;7.28;1.30;;;19.90;99.90;;;;;;4998071;28;20102;-79
2023/07/11 06:59:57;;;;;;;5.00;1.33;;;20.00;99.90;;;;;;4996818;28;20116;-80
2023/07/11 07:02:24;;;;;;;5.78;1.58;;;20.10;99.90;;;;;;5013158;28;20035;-80
2023/07/11 07:04:51;;;;;;;8.27;1.73;;;20.20;99.90;;;;;;4996399;28;20049;-81
2023/07/11 07:07:19;;;;;;;4.93;1.35;;;20.20;99.90;;;;;;5015730;28;20046;-80
2023/07/11 07:09:46;;;;;;;4.40;1.40;;;20.20;99.90;;;;;;5017228;28;20042;-80
2023/07/11 07:12:12;;;;;;;5.30;1.83;;;20.10;99.90;;;;;;5016178;28;20065;-79
2023/07/11 07:14:39;;;;;;;4.90;1.50;;;20.20;99.90;;;;;;5017403;28;20049;-79
2023/07/11 07:19:52;;;;;;;6.50;1.60;;;19.90;99.90;;;;;;5016661;28;20057;-79
2023/07/11 07:22:18;;;;;;;9.70;1.50;;;19.80;99.90;;;;;;5017480;28;20076;-79
2023/07/11 07:24:45;;;;;;;10.75;1.52;;;19.70;99.90;;;;;;4999115;28;20046;-79
2023/07/11 07:27:12;;;;;;;7.22;1.60;;;19.70;99.90;;;;;;5016932;28;20041;-81
2023/07/11 07:29:53;;;;;;;6.30;1.50;;;19.60;99.90;;;;;;5017295;28;20045;-81
2023/07/11 07:32:20;;;;;;;9.98;1.88;;;19.60;99.90;;;;;;4998982;28;20076;-80
2023/07/11 07:34:47;;;;;;;9.48;1.70;;;19.80;99.90;;;;;;5016893;28;20093;-79
2023/07/11 07:37:14;;;;;;;7.70;1.55;;;19.90;99.90;;;;;;5017458;28;20045;-80
2023/07/11 07:39:41;;;;;;;9.82;1.60;;;19.90;99.90;;;;;;4998963;28;20103;-81
2023/07/11 07:42:08;;;;;;;6.28;1.67;;;19.90;99.90;;;;;;5017285;28;20576;-80
2023/07/11 07:44:35;;;;;;;7.18;1.90;;;19.90;99.90;;;;;;5015638;28;20050;-81
2023/07/11 07:47:02;;;;;;;8.35;1.70;;;19.90;99.90;;;;;;5017127;28;20046;-81
2023/07/11 07:49:28;;;;;;;5.00;1.55;;;20.10;99.90;;;;;;5017205;28;20053;-80
2023/07/11 07:52:07;;;;;;;7.15;1.65;;;20.20;99.90;;;;;;4998506;28;20380;-79
2023/07/11 07:54:34;;;;;;;12.57;1.55;;;20.00;99.90;;;;;;5015166;28;20084;-79
2023/07/11 07:57:00;;;;;;;5.03;1.50;;;20.00;99.90;;;;;;5005748;28;20090;-80
2023/07/11 07:59:27;;;;;;;5.70;1.60;;;20.00;99.90;;;;;;4977107;28;20126;-79
2023/07/11 08:01:54;;;;;;;6.80;1.50;;;20.30;99.90;;;;;;4977347;28;20097;-79
2023/07/11 08:04:21;;;;;;;5.68;1.50;;;20.50;99.90;;;;;;4977654;28;20077;-80
2023/07/11 08:06:48;;;;;;;5.78;1.52;;;20.60;99.90;;;;;;4996505;28;20483;-82
2023/07/11 08:09:15;;;;;;;8.10;1.80;;;20.60;99.90;;;;;;4987445;28;20451;-81
2023/07/11 08:11:41;;;;;;;6.18;1.63;;;20.40;99.90;;;;;;4991334;28;20432;-82
2023/07/11 08:14:08;;;;;;;5.90;1.58;;;20.50;99.90;;;;;;4986819;28;20137;-82
2023/07/11 08:19:21;;;;;;;6.35;1.83;;;20.80;99.90;;;;;;4995562;28;20053;-82
2023/07/11 08:21:48;;;;;;;6.68;1.70;;;20.70;99.90;;;;;;4995661;28;20047;-83
2023/07/11 08:24:15;;;;;;;4.63;1.52;;;20.70;99.90;;;;;;4995354;28;20116;-84
2023/07/11 08:29:27;;;;;;;5.28;1.70;;;21.00;99.90;;;;;;4996229;28;20109;-80
2023/07/11 08:31:56;;;;;;;8.75;2.13;;;21.00;99.90;;;;;;4995268;28;20126;-85
2023/07/11 08:34:23;;;;;;;8.05;1.70;;;21.00;99.90;;;;;;4994395;28;20038;-83
2023/07/11 08:36:50;;;;;;;9.02;2.20;;;20.80;99.90;;;;;;4994241;28;20537;-82
2023/07/11 08:39:17;;;;;;;7.13;1.90;;;20.80;99.90;;;;;;4977970;28;20367;-87
2023/07/11 08:41:44;;;;;;;10.45;2.08;;;20.90;99.90;;;;;;4994897;28;20038;-82
2023/07/11 08:44:11;;;;;;;7.50;1.83;;;20.90;99.90;;;;;;4982271;28;20046;-83
2023/07/11 08:46:38;;;;;;;7.85;2.10;;;21.00;99.90;;;;;;4974488;28;20093;-81
2023/07/11 08:49:05;;;;;;;8.27;2.92;;;21.10;99.90;;;;;;4976202;28;20053;-82
2023/07/11 08:51:32;;;;;;;7.97;2.47;;;20.90;99.90;;;;;;4965479;28;20513;-85
2023/07/11 08:53:59;;;;;;;11.30;2.60;;;21.00;99.90;;;;;;4979508;28;20534;-84
2023/07/11 08:56:27;;;;;;;7.45;2.47;;;21.10;99.90;;;;;;4994636;28;20526;-87
2023/07/11 08:58:54;;;;;;;7.82;2.00;;;21.50;99.90;;;;;;4993970;28;20097;-82
2023/07/11 09:01:21;;;;;;;8.75;2.80;;;21.70;99.90;;;;;;4994595;28;20066;-84
2023/07/11 09:03:48;;;;;;;6.28;2.30;;;21.80;99.90;;;;;;4983108;28;20042;-83
2023/07/11 09:06:17;;;;;;;9.57;2.08;;;21.50;99.90;;;;;;4966674;28;20046;-86
2023/07/11 09:08:43;;;;;;;8.85;2.17;;;21.40;99.90;;;;;;4995170;28;20045;-83
2023/07/11 09:11:10;;;;;;;8.63;2.28;;;21.60;99.90;;;;;;4976104;28;20444;-85
2023/07/11 09:13:37;;;;;;;7.18;1.83;;;21.80;99.90;;;;;;4990351;28;20078;-88
2023/07/11 09:18:51;;;;;;;8.55;1.95;;;22.30;99.90;;;;;;4994531;28;20042;-82
2023/07/11 09:21:18;;;;;;;9.30;2.20;;;22.40;99.90;;;;;;5010582;28;20039;-83
2023/07/11 09:23:45;;;;;;;10.52;2.53;;;22.10;99.90;;;;;;5001486;28;20462;-81
2023/07/11 09:26:12;;;;;;;8.43;2.20;;;22.30;99.90;;;;;;4986648;28;20122;-80
2023/07/11 09:28:38;;;;;;;9.40;2.40;;;22.60;99.90;;;;;;4989720;28;20465;-81
2023/07/11 09:31:05;;;;;;;10.00;2.30;;;22.70;99.90;;;;;;4995109;28;20117;-82
2023/07/11 09:33:32;;;;;;;9.00;1.98;;;22.70;99.90;;;;;;4995041;28;20454;-82
2023/07/11 09:35:59;;;;;;;8.05;1.88;;;22.60;99.90;;;;;;4991971;28;20058;-83
2023/07/11 09:38:26;;;;;;;9.32;1.90;;;22.20;99.90;;;;;;4989067;28;20470;-79
2023/07/11 09:40:53;;;;;;;6.70;1.88;;;22.10;99.90;;;;;;4989600;28;20046;-82
2023/07/11 09:43:19;;;;;;;9.07;2.15;;;22.30;99.90;;;;;;4974689;28;20047;-79
2023/07/11 09:45:46;;;;;;;7.43;2.70;;;22.80;99.90;;;;;;4974582;28;20122;-79
2023/07/11 09:48:13;;;;;;;8.02;2.22;;;23.30;99.90;;;;;;4990838;28;20145;-83
2023/07/11 09:50:40;;;;;;;8.27;2.05;;;23.50;99.90;;;;;;4975078;28;20129;-84
2023/07/11 09:53:14;;;;;;;8.88;1.75;;;23.50;99.90;;;;;;4974797;28;20078;-80
2023/07/11 09:58:38;;;;;;;10.07;2.92;;;23.50;99.90;;;;;;4978888;28;20054;-81
2023/07/11 10:01:04;;;;;;;8.02;1.85;;;23.70;99.90;;;;;;4980793;28;20046;-82
2023/07/11 10:03:34;;;;;;;8.07;2.40;;;23.90;99.90;;;;;;4987607;28;20115;-85
2023/07/11 10:06:03;;;;;;;8.32;1.95;;;24.00;99.90;;;;;;4988692;28;20085;-85
2023/07/11 10:08:30;;;;;;;10.23;2.80;;;23.90;99.90;;;;;;4987240;28;20061;-81
2023/07/11 10:10:57;;;;;;;8.18;1.80;;;24.10;99.90;;;;;;4995344;28;20046;-83
2023/07/11 10:13:24;;;;;;;9.70;2.78;;;24.40;99.90;;;;;;4997706;28;20113;-82
2023/07/11 10:18:49;;;;;;;8.77;2.05;;;24.60;99.90;;;;;;4997044;28;20050;-84
2023/07/11 10:21:16;;;;;;;10.23;2.47;;;24.60;99.90;;;;;;4981143;28;20381;-82
2023/07/11 10:23:50;;;;;;;8.45;2.50;;;24.90;99.90;;;;;;4997936;28;20053;-84
2023/07/11 10:26:17;;;;;;;10.02;2.53;;;25.00;99.90;;;;;;4979805;28;20035;-82
2023/07/11 10:28:43;;;;;;;11.73;2.80;;;25.20;99.90;;;;;;4998025;28;20038;-82
2023/07/11 10:31:10;;;;;;;9.65;2.50;;;25.00;99.90;;;;;;4997233;28;20050;-83
2023/07/11 10:33:37;;;;;;;10.68;2.65;;;25.30;99.90;;;;;;4997644;28;20108;-84
2023/07/11 10:36:20;;;;;;;6.82;2.42;;;25.50;99.90;;;;;;4997843;28;20050;-80
2023/07/11 10:38:47;;;;;;;9.90;2.50;;;25.80;99.90;;;;;;4996897;28;20065;-81
2023/07/11 10:41:14;;;;;;;11.50;2.90;;;25.80;99.90;;;;;;4980652;28;20046;-83
2023/07/11 10:43:41;;;;;;;6.75;1.73;;;25.50;99.90;;;;;;4984681;28;20117;-83
2023/07/11 10:46:10;;;;;;;9.90;2.70;;;25.40;99.90;;;;;;4979165;28;20055;-85
2023/07/11 10:48:36;;;;;;;8.45;3.03;;;25.60;99.90;;;;;;4978162;28;20358;-80
2023/07/11 10:51:03;;;;;;;6.95;2.35;;;25.20;99.90;;;;;;4960975;28;20050;-79
2023/07/11 10:53:30;;;;;;;7.07;2.30;;;25.10;99.90;;;;;;4977315;28;20069;-86
2023/07/11 10:58:42;;;;;;;14.25;2.78;;;25.60;99.90;;;;;;4995192;28;20084;-88
2023/07/11 11:01:09;;;;;;;8.43;2.47;;;25.50;99.90;;;;;;4997006;28;20120;-83
2023/07/11 11:03:36;;;;;;;10.75;2.92;;;25.40;99.90;;;;;;4996335;28;20046;-85
2023/07/11 11:08:55;;;;;;;8.25;2.30;;;25.70;99.90;;;;;;4969226;28;20133;-86
2023/07/11 11:11:22;;;;;;;7.72;2.40;;;25.70;99.90;;;;;;4977449;28;20121;-85
2023/07/11 11:13:49;;;;;;;9.13;2.63;;;25.80;99.90;;;;;;4973209;28;20448;-82
2023/07/11 11:16:16;;;;;;;8.40;2.85;;;26.20;99.90;;;;;;4977409;28;20406;-86
2023/07/11 11:18:42;;;;;;;9.40;2.70;;;26.50;99.90;;;;;;4976296;28;20062;-85
2023/07/11 11:21:09;;;;;;;9.15;2.53;;;26.20;99.90;;;;;;4978065;28;20045;-87
2023/07/11 11:23:47;;;;;;;8.93;2.35;;;26.50;99.90;;;;;;4976902;28;20059;-81
2023/07/11 11:29:00;;;;;;;9.75;2.40;;;26.90;99.90;;;;;;4996746;28;20051;-88
2023/07/11 11:31:28;;;;;;;7.57;2.45;;;27.00;99.90;;;;;;4993250;28;20473;-83
2023/07/11 11:33:55;;;;;;;9.35;2.42;;;27.10;99.90;;;;;;4976579;28;20070;-85
2023/07/11 11:39:10;;;;;;;9.85;2.72;;;26.90;99.90;;;;;;4996119;28;20042;-82
2023/07/11 11:41:36;;;;;;;9.65;2.50;;;26.80;99.90;;;;;;5012364;28;20469;-89
2023/07/11 11:44:03;;;;;;;8.45;2.50;;;26.50;99.90;;;;;;4996817;28;20050;-88
2023/07/11 11:46:35;;;;;;;10.25;2.80;;;26.80;99.90;;;;;;4989555;28;20054;-83
2023/07/11 11:49:07;;;;;;;9.35;2.97;;;26.70;99.90;;;;;;4988761;28;20049;-84
2023/07/11 11:51:54;;;;;;;8.27;2.40;;;26.20;99.90;;;;;;4995023;28;20046;-83
2023/07/11 11:54:21;;;;;;;9.80;2.72;;;26.00;99.90;;;;;;4992151;28;20065;-82
2023/07/11 11:56:48;;;;;;;9.05;2.50;;;26.10;99.90;;;;;;4983314;28;20053;-83
2023/07/11 11:59:15;;;;;;;10.15;2.70;;;26.30;99.90;;;;;;4995873;28;20038;-83
2023/07/11 12:01:42;;;;;;;10.93;2.80;;;26.00;99.90;;;;;;4995140;28;20054;-81
2023/07/11 12:04:08;;;;;;;10.18;2.83;;;25.80;99.90;;;;;;5011544;28;20053;-82
2023/07/11 12:06:36;;;;;;;7.38;2.45;;;25.90;99.90;;;;;;4995603;28;20076;-83
2023/07/11 12:09:03;;;;;;;9.25;2.60;;;25.80;99.90;;;;;;4995499;28;20412;-80
2023/07/11 12:11:31;;;;;;;7.20;2.60;;;26.00;99.90;;;;;;4995390;28;20385;-83
2023/07/11 12:13:57;;;;;;;8.20;2.67;;;26.10;99.90;;;;;;4994677;28;20058;-81
2023/07/11 12:16:24;;;;;;;9.85;2.92;;;25.90;99.90;;;;;;4986209;28;20039;-82
2023/07/11 12:19:06;;;;;;;11.95;2.97;;;26.20;99.90;;;;;;4986377;28;20085;-82
2023/07/11 12:21:33;;;;;;;8.20;2.60;;;26.70;99.90;;;;;;4981879;28;20438;-82
2023/07/11 12:24:00;;;;;;;12.23;3.05;;;26.80;99.90;;;;;;4975418;28;20039;-84
2023/07/11 12:26:47;;;;;;;9.00;2.88;;;27.30;99.90;;;;;;4974782;28;20066;-82
2023/07/11 12:29:13;;;;;;;10.02;2.90;;;28.20;99.90;;;;;;4975770;28;20405;-81
2023/07/11 12:31:40;;;;;;;13.18;2.90;;;29.30;99.90;;;;;;4975536;28;20111;-83
2023/07/11 12:34:07;;;;;;;8.05;2.45;;;29.00;99.90;;;;;;4975357;28;20382;-83
2023/07/11 12:36:34;;;;;;;9.02;2.60;;;28.90;99.90;;;;;;4986354;28;20461;-83
2023/07/11 12:39:00;;;;;;;12.85;2.95;;;28.20;99.90;;;;;;4993580;28;20062;-84
2023/07/11 12:41:27;;;;;;;11.02;2.78;;;28.20;99.90;;;;;;4994873;28;20038;-84
2023/07/11 12:44:09;;;;;;;7.57;2.40;;;28.70;99.90;;;;;;4995231;28;20125;-81
2023/07/11 12:46:36;;;;;;;11.23;3.17;;;28.70;99.90;;;;;;5009838;28;20137;-83
2023/07/11 12:49:03;;;;;;;9.23;2.30;;;28.50;99.90;;;;;;4995450;28;20046;-82
2023/07/11 12:51:30;;;;;;;8.13;2.40;;;28.30;99.90;;;;;;4994732;28;20043;-84
2023/07/11 12:53:56;;;;;;;9.27;2.42;;;28.50;99.90;;;;;;4995223;28;20052;-84
2023/07/11 12:56:23;;;;;;;10.82;3.03;;;29.10;99.90;;;;;;4995485;28;20074;-84
2023/07/11 12:58:50;;;;;;;10.25;2.78;;;28.80;99.90;;;;;;4994816;28;20055;-82
2023/07/11 13:01:17;;;;;;;10.77;2.58;;;29.00;99.90;;;;;;5010840;28;20428;-83
2023/07/11 13:03:44;;;;;;;7.38;2.35;;;29.20;99.90;;;;;;5010738;28;20104;-83
2023/07/11 13:06:11;;;;;;;9.38;2.45;;;29.10;99.90;;;;;;5009669;28;20361;-81
2023/07/11 13:08:48;;;;;;;10.13;2.17;;;29.50;99.90;;;;;;4995052;28;20042;-81
2023/07/11 13:11:15;;;;;;;8.50;2.80;;;28.80;99.90;;;;;;4994568;28;20046;-83
2023/07/11 13:13:42;;;;;;;10.48;3.25;;;28.50;99.90;;;;;;5009983;28;20504;-83
2023/07/11 13:16:10;;;;;;;9.02;2.58;;;28.10;99.90;;;;;;4994158;28;20043;-82
2023/07/11 13:18:37;;;;;;;9.35;2.63;;;27.50;99.90;;;;;;4994120;28;20481;-83